createdAt,value
2018-04-11T00:05:09.307Z,15.2
2018-04-11T00:21:51.813Z,14.9
2018-04-11T00:38:34.718Z,14.6
2018-04-11T00:48:35.540Z,14.2
2018-04-11T01:05:17.687Z,13.9
2018-04-11T01:21:59.240Z,13.6
2018-04-11T01:38:40.154Z,13.3
2018-04-11T01:55:21.059Z,13.0
2018-04-11T02:12:01.852Z,12.6
2018-04-11T02:28:42.419Z,12.3
2018-04-11T02:45:22.055Z,12.0
2018-04-11T03:02:06.066Z,11.7
2018-04-11T03:18:41.030Z,11.4
2018-04-11T03:35:20.156Z,11.0
2018-04-11T03:51:58.847Z,10.7
2018-04-11T04:08:37.733Z,10.7
2018-04-11T04:25:16.492Z,10.4
2018-04-11T04:41:54.891Z,10.1
2018-04-11T04:58:33.727Z,10.1
2018-04-11T05:15:11.801Z,9.8
2018-04-11T05:31:50.121Z,9.8
2018-04-11T05:48:28.332Z,10.1
2018-04-11T06:05:07.017Z,10.4
2018-04-11T06:21:45.760Z,10.7
2018-04-11T06:35:05.772Z,11.4
2018-04-11T06:48:25.585Z,12.0
2018-04-11T07:05:05.541Z,12.0
2018-04-11T07:21:46.364Z,12.3
2018-04-11T07:38:27.513Z,12.6
2018-04-11T07:48:27.314Z,13.3
2018-04-11T08:05:08.301Z,13.6
2018-04-11T08:21:49.889Z,14.2
2018-04-11T08:31:51.615Z,14.9
2018-04-11T08:41:52.187Z,15.2
2018-04-11T08:55:15.240Z,15.8
2018-04-11T09:08:38.004Z,15.8
2018-04-11T09:22:00.520Z,16.5
2018-04-11T09:32:02.896Z,17.1
2018-04-11T09:45:26.296Z,17.4
2018-04-11T09:55:30.421Z,16.8
2018-04-11T10:12:13.283Z,17.4
2018-04-11T10:28:58.579Z,17.8
2018-04-11T10:45:43.224Z,17.8
2018-04-11T11:02:28.397Z,17.8
2018-04-11T11:19:12.663Z,17.8
2018-04-11T11:29:15.834Z,18.4
2018-04-11T11:35:58.161Z,19.0
2018-04-11T11:46:03.522Z,19.4
2018-04-11T11:56:05.830Z,18.7
2018-04-11T12:12:51.395Z,18.1
2018-04-11T12:29:36.735Z,17.8
2018-04-11T12:46:21.654Z,17.8
2018-04-11T12:53:03.790Z,18.4
2018-04-11T13:03:07.327Z,18.7
2018-04-11T13:19:53.223Z,18.4
2018-04-11T13:26:35.529Z,19.0
2018-04-11T13:36:39.474Z,19.7
2018-04-11T13:53:26.525Z,19.4
2018-04-11T14:06:51.542Z,18.7
2018-04-11T14:20:16.203Z,18.1
2018-04-11T14:37:01.720Z,18.4
2018-04-11T14:53:47.613Z,18.7
2018-04-11T15:10:32.635Z,18.1
2018-04-11T15:27:18.833Z,17.8
2018-04-11T15:44:03.023Z,17.4
2018-04-11T15:57:27.217Z,17.1
2018-04-11T16:14:10.849Z,16.8
2018-04-11T16:30:54.907Z,16.5
2018-04-11T16:47:38.775Z,16.2
2018-04-11T17:04:22.607Z,15.8
2018-04-11T17:21:06.167Z,15.8
2018-04-11T17:37:48.659Z,15.5
2018-04-11T17:54:31.687Z,14.9
2018-04-11T18:11:14.902Z,14.6
2018-04-11T18:27:56.199Z,14.2
2018-04-11T18:44:38.231Z,13.9
2018-04-11T19:01:19.965Z,13.9
2018-04-11T19:18:01.164Z,13.6
2018-04-11T19:34:42.025Z,13.3
2018-04-11T19:51:23.156Z,13.3
2018-04-11T20:08:05.367Z,13.0
2018-04-11T20:24:45.241Z,13.0
2018-04-11T20:41:26.088Z,13.0
2018-04-11T20:58:06.934Z,12.6
2018-04-11T21:14:47.755Z,12.6
2018-04-11T21:31:28.827Z,12.6
2018-04-11T21:48:09.143Z,12.3
2018-04-11T22:04:49.703Z,12.3
2018-04-11T22:21:30.353Z,12.3
2018-04-11T22:38:10.861Z,12.0
2018-04-11T22:54:51.216Z,12.0
2018-04-11T23:11:31.344Z,11.7
2018-04-11T23:28:11.521Z,11.4
2018-04-11T23:44:51.242Z,11.4
